Texas General Land Office
 Texas General Land Office
 George P. Bush, Commissioner

 Oil Spill Prevention
 & Response

Texas Automated Buoy System
Real Time Ocean Observations
Supporting Oil Spill Prevention and
Response since 1995
Geochemical and Environmental Research Group

NOAA - NDBC Buoy 42020 -- Texas Automated Buoy System

NBDC Buoy 42020
Corpus Christi, TX
Conditions at 05/22/2019 23:50 UTC (05/22/2019 18:50 CDT)
26° 57.0000'N   96° 42.0000'W
50nm Southeast of Corpus Christi, TX
Anemometer height: 5m
Water Depth: 252 feet (77 meters)
Wind: 10.0 m/s (19.4 kts)
          From 140°T (SE)
Wind Gust: 13.00 m/s (25.3 kts) Pressure: 1007.2 mb (29.74 inHg)
Air Temp: 28°C (82 °F) Dewpoint: 27°C (80°F) Relative Humidity: 95%
Sea Surf Temp: 27 °C (80 °F) Wave Height: 2.3m (7.5 ft) Wave Period: 9
  


IMPORTANT: Notice to Mariners


Today's Velocity Data

  Buoy     Date      Time     East   North   Speed  Dir(°T) Wave Ht WvPer  Num
|  ID  |          |  (UTC) | (m/s) | (m/s) | (m/s) |(FROM) |  (m)  | secs| pts |
+======+==========+========+=======+=======+=======+=======+=======+=====+=====+
  42020 05/19/2019 00:10:00    6.13   -5.14    8.00     130     0.0     0     1
  42020 05/19/2019 00:20:00    6.13   -5.14    8.00     130     1.8     7     1
  42020 05/19/2019 00:30:00    6.89   -5.79    9.00     130     0.0     0     1
  42020 05/19/2019 00:40:00    6.89   -5.79    9.00     130     0.0     0     1
  42020 05/19/2019 00:50:00    6.13   -5.14    8.00     130     0.0     0     1
  42020 05/19/2019 06:00:00    5.15   -6.47    8.27     142     0.4     1    31
  42020 05/19/2019 06:10:00    2.05   -5.64    6.00     160     0.0     0     1
  42020 05/19/2019 06:20:00    2.05   -5.64    6.00     160     1.7     7     1
  42020 05/19/2019 06:30:00    1.04   -5.91    6.00     170     0.0     0     1
  42020 05/19/2019 06:40:00    1.04   -5.91    6.00     170     0.0     0     1
  42020 05/19/2019 06:50:00    2.05   -5.64    6.00     160     0.0     0     1
  42020 05/19/2019 12:00:00    3.24   -4.84    5.82     146     0.3     1    31
  42020 05/19/2019 12:10:00    4.60   -3.86    6.00     130     0.0     0     1
  42020 05/19/2019 12:20:00    4.60   -3.86    6.00     130     1.8     7     1
  42020 05/19/2019 12:30:00    4.60   -3.86    6.00     130     0.0     0     1
  42020 05/19/2019 12:40:00    4.60   -3.86    6.00     130     0.0     0     1
  42020 05/19/2019 12:50:00    4.60   -3.86    6.00     130     0.0     0     1
  42020 05/19/2019 18:00:00    2.84   -1.07    3.03     111     0.3     1    31
  42020 05/19/2019 18:10:00    2.95    0.52    3.00      80     0.0     0     1
  42020 05/19/2019 18:20:00    3.94    0.69    4.00      80     1.7     7     1
  42020 05/19/2019 18:30:00    3.94    0.69    4.00      80     0.0     0     1
  42020 05/19/2019 18:40:00    5.00    0.00    5.00      90     0.0     0     1
  42020 05/19/2019 18:50:00    5.00    0.00    5.00      90     0.0     0     1
  42020 05/20/2019 00:00:00    5.06    0.26    5.06      87     0.3     1    31
  42020 05/20/2019 00:10:00    7.88   -1.39    8.00     100     0.0     0     1
  42020 05/20/2019 00:20:00    7.88   -1.39    8.00     100     1.8     8     1
  42020 05/20/2019 00:30:00    6.89   -1.22    7.00     100     0.0     0     1
  42020 05/20/2019 00:40:00    7.00    0.00    7.00      90     0.0     0     1
  42020 05/20/2019 00:50:00    7.00    0.00    7.00      90     0.0     0     1
  42020 05/20/2019 06:00:00    6.38   -2.75    6.95     113     0.3     1    31
  42020 05/20/2019 06:10:00    5.36   -4.50    7.00     130     0.0     0     1
  42020 05/20/2019 06:20:00    5.36   -4.50    7.00     130     1.7     8     1
  42020 05/20/2019 06:30:00    5.36   -4.50    7.00     130     0.0     0     1
  42020 05/20/2019 06:40:00    4.50   -5.36    7.00     140     0.0     0     1
  42020 05/20/2019 06:50:00    4.50   -5.36    7.00     140     0.0     0     1
  42020 05/20/2019 12:00:00    4.96   -5.03    7.07     135     0.2     1    31
  42020 05/20/2019 12:10:00    6.13   -5.14    8.00     130     1.4     0     1
  42020 05/20/2019 12:20:00    5.14   -6.13    8.00     140     1.4     8     1
  42020 05/20/2019 12:30:00    5.36   -4.50    7.00     130     0.0     0     1
  42020 05/20/2019 12:40:00    6.13   -5.14    8.00     130     0.0     0     1
  42020 05/20/2019 12:50:00    6.13   -5.14    8.00     130     0.0     0     1
  42020 05/20/2019 18:00:00    5.08   -6.81    8.50     143     0.5     1    31
  42020 05/20/2019 18:10:00    5.79   -6.89    9.00     140     2.2     0     1
  42020 05/20/2019 18:20:00    5.79   -6.89    9.00     140     2.2     8     1
  42020 05/20/2019 18:30:00    5.79   -6.89    9.00     140     0.0     0     1
  42020 05/20/2019 18:40:00    5.79   -6.89    9.00     140     0.0     0     1
  42020 05/20/2019 18:50:00    5.79   -6.89    9.00     140     0.0     0     1
  42020 05/21/2019 00:00:00    6.30   -7.51    9.81     140     0.5     1    31
  42020 05/21/2019 00:10:00    7.07   -8.43   11.00     140     2.1     0     1
  42020 05/21/2019 00:20:00    7.07   -8.43   11.00     140     2.1     7     1
  42020 05/21/2019 00:30:00    7.07   -8.43   11.00     140     0.0     0     1
  42020 05/21/2019 00:40:00    7.71   -9.19   12.00     140     0.0     0     1
  42020 05/21/2019 00:50:00    7.71   -9.19   12.00     140     0.0     0     1
  42020 05/21/2019 06:00:00    7.23  -11.02   13.18     147     0.6     1    31
  42020 05/21/2019 06:10:00    7.50  -12.99   15.00     150     2.9     0     1
  42020 05/21/2019 06:20:00    7.50  -12.99   15.00     150     2.9     8     1
  42020 05/21/2019 06:30:00    7.50  -12.99   15.00     150     0.0     0     1
  42020 05/21/2019 06:40:00    7.00  -12.12   14.00     150     0.0     0     1
  42020 05/21/2019 06:50:00    7.50  -12.99   15.00     150     0.0     0     1
  42020 05/21/2019 12:00:00    5.37  -11.32   12.53     155     0.9     1    31
  42020 05/21/2019 12:10:00    4.10  -11.28   12.00     160     0.0     0     1
  42020 05/21/2019 12:20:00    4.10  -11.28   12.00     160     3.5     8     1
  42020 05/21/2019 12:30:00    4.10  -11.28   12.00     160     0.0     0     1
  42020 05/21/2019 12:40:00    4.10  -11.28   12.00     160     0.0     0     1
  42020 05/21/2019 12:50:00    4.45  -12.22   13.00     160     0.0     0     1
  42020 05/21/2019 18:00:00    3.99  -10.23   10.98     159     0.6     1    31
  42020 05/21/2019 18:10:00    1.39   -7.88    8.00     170     2.7     0     1
  42020 05/21/2019 18:20:00    1.39   -7.88    8.00     170     2.7     8     1
  42020 05/21/2019 18:30:00    1.22   -6.89    7.00     170     0.0     0     1
  42020 05/21/2019 18:40:00    1.22   -6.89    7.00     170     0.0     0     1
  42020 05/21/2019 18:50:00    1.22   -6.89    7.00     170     0.0     0     1
  42020 05/22/2019 00:00:00    2.87   -3.67    4.66     142     0.5     1    31
  42020 05/22/2019 00:10:00    4.60   -3.86    6.00     130     2.0     0     1
  42020 05/22/2019 00:20:00    5.36   -4.50    7.00     130     2.0     8     1
  42020 05/22/2019 00:30:00    5.36   -4.50    7.00     130     0.0     0     1
  42020 05/22/2019 00:40:00    5.36   -4.50    7.00     130     0.0     0     1
  42020 05/22/2019 00:50:00    5.36   -4.50    7.00     130     0.0     0     1
  42020 05/22/2019 06:00:00    4.77   -4.82    6.78     135     0.3     1    31
  42020 05/22/2019 06:10:00    4.00   -6.93    8.00     150     0.0     0     1
  42020 05/22/2019 06:20:00    3.50   -6.06    7.00     150     2.2     8     1
  42020 05/22/2019 06:30:00    3.50   -6.06    7.00     150     0.0     0     1
  42020 05/22/2019 06:40:00    3.50   -6.06    7.00     150     0.0     0     1
  42020 05/22/2019 06:50:00    3.50   -6.06    7.00     150     0.0     0     1
  42020 05/22/2019 12:00:00    4.32   -7.03    8.25     148     0.4     1    31
  42020 05/22/2019 12:10:00    5.79   -6.89    9.00     140     1.9     0     1
  42020 05/22/2019 12:20:00    6.43   -7.66   10.00     140     1.9     8     1
  42020 05/22/2019 12:30:00    6.43   -7.66   10.00     140     0.0     0     1
  42020 05/22/2019 12:40:00    6.43   -7.66   10.00     140     0.0     0     1
  42020 05/22/2019 12:50:00    6.43   -7.66   10.00     140     0.0     0     1
  42020 05/22/2019 18:00:00    6.47   -6.66    9.28     136     0.5     1    31
  42020 05/22/2019 18:10:00    6.89   -5.79    9.00     130     1.9     0     1
  42020 05/22/2019 18:20:00    6.89   -5.79    9.00     130     1.9     9     1
  42020 05/22/2019 18:30:00    6.89   -5.79    9.00     130     0.0     0     1
  42020 05/22/2019 18:40:00    6.89   -5.79    9.00     130     0.0     0     1
  42020 05/22/2019 18:50:00    6.89   -5.79    9.00     130     0.0     0     1